Tor Futura — OZZE2 — position and weather

sailwx.info

Track history (hours):
 
Tides and Currents Weather Stations Pressure Air Temp Water Temp Dewpoint Dewpoint Depression Visibility Wind Speed Wind Dir Waves Ship Positions

Tor Futura

Last reported at 2015-Mar-03 23:19 UTC. Time now 2015-Mar-04 02:51 UTC.
Position N 42°25' E 005°45'.

Length 183.1 m; beam 25.2 m; draft 7.8 m.

Type: Cargo ship. MMSI: 219927000.

Date/timePositionNaut miles runAvg speedWind from/ knotsBaromVisibWave heightAir tempDewpointWater temp
2015-Mar-03 23:19N 42°25' E 005°45'1313.9
2015-Mar-03 22:25N 42°36' E 005°37'1814.4
2015-Mar-03 21:10N 42°51' E 005°24'1313.5
2015-Mar-03 20:12N 43°03' E 005°16'914.2
2015-Mar-03 19:33N 43°11' E 005°10'1211.7
2015-Mar-03 18:33N 43°21' E 005°18'3 2.8
2015-Mar-03 17:31N 43°19' E 005°22'0 0.0
2015-Mar-03 16:31N 43°19' E 005°22'0 0.0
2015-Mar-03 15:31N 43°19' E 005°22'0 0.0
2015-Mar-03 14:19N 43°19' E 005°22'0 0.0
2015-Mar-03 13:31N 43°19' E 005°22'0 0.0
2015-Mar-03 12:19N 43°19' E 005°22'0 0.0
2015-Mar-03 11:31N 43°19' E 005°22'0 0.0
2015-Mar-03 10:28N 43°19' E 005°22'0 0.0
2015-Mar-03 09:22N 43°19' E 005°22'0 0.0
2015-Mar-03 08:31N 43°19' E 005°22'0 0.0
2015-Mar-03 07:25N 43°19' E 005°22'0 0.0
2015-Mar-03 06:31N 43°19' E 005°22'0 0.0
2015-Mar-03 05:31N 43°19' E 005°22'0 0.0
2015-Mar-03 04:31N 43°19' E 005°22'0 0.0
2015-Mar-03 03:31N 43°19' E 005°22'0 0.0
2015-Mar-03 02:31N 43°19' E 005°22'0 0.0
2015-Mar-03 01:28N 43°19' E 005°22'0 0.0
2015-Mar-03 00:31N 43°19' E 005°22'0 0.0
2015-Mar-02 23:31N 43°19' E 005°22'0 0.0
2015-Mar-02 22:31N 43°19' E 005°22'0 0.0
2015-Mar-02 21:31N 43°19' E 005°22'0 0.0
2015-Mar-02 20:28N 43°19' E 005°22'0 0.0
2015-Mar-02 19:31N 43°19' E 005°22'0 0.0
2015-Mar-02 18:31N 43°19' E 005°22'0 0.0
2015-Mar-02 17:31N 43°19' E 005°22'0 0.0
2015-Mar-02 16:31N 43°19' E 005°22'0 0.0
2015-Mar-02 15:31N 43°19' E 005°22'0 0.0
2015-Mar-02 14:31N 43°19' E 005°22'0 0.0
2015-Mar-02 13:28N 43°19' E 005°22'0 0.0
2015-Mar-02 12:31N 43°19' E 005°22'0 0.0
2015-Mar-02 11:31N 43°19' E 005°22'0 0.0
2015-Mar-02 10:31N 43°19' E 005°22'0 0.0
2015-Mar-02 09:31N 43°19' E 005°22'0 0.0
2015-Mar-02 08:31N 43°19' E 005°22'0 0.0
2015-Mar-02 07:31N 43°19' E 005°22'4 4.2
2015-Mar-02 06:33N 43°20' E 005°16'9 9.1
2015-Mar-02 05:32N 43°11' E 005°12'27815.3
2015-Mar-01 11:23N 39°07' E 008°10'3416.9
2015-Mar-01 09:22N 38°41' E 008°37'1315.9
2015-Mar-01 08:33N 38°33' E 008°50'5 0.1
2015-Feb-27 18:33N 38°33' E 008°44'1814.1
2015-Feb-27 17:17N 38°46' E 008°28'1413.9
2015-Feb-27 16:18N 38°57' E 008°17'1113.2
2015-Feb-27 15:27N 39°07' E 008°10'1914.7
2015-Feb-27 14:10N 39°23' E 007°58'25914.4
2015-Feb-26 20:06N 43°10' E 005°10'712.8
2015-Feb-26 19:33N 43°17' E 005°10'9 8.5
2015-Feb-26 18:33N 43°19' E 005°22'0 0.0
2015-Feb-26 17:32N 43°19' E 005°22'0 0.0
2015-Feb-26 16:32N 43°19' E 005°22'0 0.0
2015-Feb-26 15:32N 43°19' E 005°22'0 0.0
2015-Feb-26 14:29N 43°19' E 005°22'0 0.0
2015-Feb-26 13:32N 43°19' E 005°22'0 0.0
2015-Feb-26 12:32N 43°19' E 005°22'0 0.0
2015-Feb-26 11:29N 43°19' E 005°22'0 0.0
2015-Feb-26 10:29N 43°19' E 005°22'4 4.7
2015-Feb-26 09:33N 43°19' E 005°16'1110.0
2015-Feb-26 08:29N 43°09' E 005°17'30513.2
2015-Feb-25 09:17N 39°19' E 009°46'1215.7
2015-Feb-25 08:32N 39°07' E 009°44'  
2015-Feb-22 18:33N 38°34' E 008°44'1813.9
2015-Feb-22 17:17N 38°46' E 008°28'1413.7
2015-Feb-22 16:16N 38°57' E 008°17'1114.0
2015-Feb-22 15:28N 39°07' E 008°10'1514.5
2015-Feb-22 14:25N 39°20' E 008°00'  
Track history (hours):
 
Tides and Currents Weather Stations Pressure Air Temp Water Temp Dewpoint Dewpoint Depression Visibility Wind Speed Wind Dir Waves Ship Positions

Tor Futura

Last reported at 2015-Mar-03 23:19 UTC. Time now 2015-Mar-04 02:51 UTC.
Position N 42°25' E 005°45'.

Length 183.1 m; beam 25.2 m; draft 7.8 m.

Type: Cargo ship. MMSI: 219927000.

Date/timePositionNaut miles runAvg speedWind from/ knotsBaromVisibWave heightAir tempDewpointWater temp
2015-Mar-03 23:19N 42°25' E 005°45'1313.9
2015-Mar-03 22:25N 42°36' E 005°37'1814.4
2015-Mar-03 21:10N 42°51' E 005°24'1313.5
2015-Mar-03 20:12N 43°03' E 005°16'914.2
2015-Mar-03 19:33N 43°11' E 005°10'1211.7
2015-Mar-03 18:33N 43°21' E 005°18'3 2.8
2015-Mar-03 17:31N 43°19' E 005°22'0 0.0
2015-Mar-03 16:31N 43°19' E 005°22'0 0.0
2015-Mar-03 15:31N 43°19' E 005°22'0 0.0
2015-Mar-03 14:19N 43°19' E 005°22'0 0.0
2015-Mar-03 13:31N 43°19' E 005°22'0 0.0
2015-Mar-03 12:19N 43°19' E 005°22'0 0.0
2015-Mar-03 11:31N 43°19' E 005°22'0 0.0
2015-Mar-03 10:28N 43°19' E 005°22'0 0.0
2015-Mar-03 09:22N 43°19' E 005°22'0 0.0
2015-Mar-03 08:31N 43°19' E 005°22'0 0.0
2015-Mar-03 07:25N 43°19' E 005°22'0 0.0
2015-Mar-03 06:31N 43°19' E 005°22'0 0.0
2015-Mar-03 05:31N 43°19' E 005°22'0 0.0
2015-Mar-03 04:31N 43°19' E 005°22'0 0.0
2015-Mar-03 03:31N 43°19' E 005°22'0 0.0
2015-Mar-03 02:31N 43°19' E 005°22'0 0.0
2015-Mar-03 01:28N 43°19' E 005°22'0 0.0
2015-Mar-03 00:31N 43°19' E 005°22'0 0.0
2015-Mar-02 23:31N 43°19' E 005°22'0 0.0
2015-Mar-02 22:31N 43°19' E 005°22'0 0.0
2015-Mar-02 21:31N 43°19' E 005°22'0 0.0
2015-Mar-02 20:28N 43°19' E 005°22'0 0.0
2015-Mar-02 19:31N 43°19' E 005°22'0 0.0
2015-Mar-02 18:31N 43°19' E 005°22'0 0.0
2015-Mar-02 17:31N 43°19' E 005°22'0 0.0
2015-Mar-02 16:31N 43°19' E 005°22'0 0.0
2015-Mar-02 15:31N 43°19' E 005°22'0 0.0
2015-Mar-02 14:31N 43°19' E 005°22'0 0.0
2015-Mar-02 13:28N 43°19' E 005°22'0 0.0
2015-Mar-02 12:31N 43°19' E 005°22'0 0.0
2015-Mar-02 11:31N 43°19' E 005°22'0 0.0
2015-Mar-02 10:31N 43°19' E 005°22'0 0.0
2015-Mar-02 09:31N 43°19' E 005°22'0 0.0
2015-Mar-02 08:31N 43°19' E 005°22'0 0.0
2015-Mar-02 07:31N 43°19' E 005°22'4 4.2
2015-Mar-02 06:33N 43°20' E 005°16'9 9.1
2015-Mar-02 05:32N 43°11' E 005°12'27815.3
2015-Mar-01 11:23N 39°07' E 008°10'3416.9
2015-Mar-01 09:22N 38°41' E 008°37'1315.9
2015-Mar-01 08:33N 38°33' E 008°50'5 0.1
2015-Feb-27 18:33N 38°33' E 008°44'1814.1
2015-Feb-27 17:17N 38°46' E 008°28'1413.9
2015-Feb-27 16:18N 38°57' E 008°17'1113.2
2015-Feb-27 15:27N 39°07' E 008°10'1914.7
2015-Feb-27 14:10N 39°23' E 007°58'25914.4
2015-Feb-26 20:06N 43°10' E 005°10'712.8
2015-Feb-26 19:33N 43°17' E 005°10'9 8.5
2015-Feb-26 18:33N 43°19' E 005°22'0 0.0
2015-Feb-26 17:32N 43°19' E 005°22'0 0.0
2015-Feb-26 16:32N 43°19' E 005°22'0 0.0
2015-Feb-26 15:32N 43°19' E 005°22'0 0.0
2015-Feb-26 14:29N 43°19' E 005°22'0 0.0
2015-Feb-26 13:32N 43°19' E 005°22'0 0.0
2015-Feb-26 12:32N 43°19' E 005°22'0 0.0
2015-Feb-26 11:29N 43°19' E 005°22'0 0.0
2015-Feb-26 10:29N 43°19' E 005°22'4 4.7
2015-Feb-26 09:33N 43°19' E 005°16'1110.0
2015-Feb-26 08:29N 43°09' E 005°17'30513.2
2015-Feb-25 09:17N 39°19' E 009°46'1215.7
2015-Feb-25 08:32N 39°07' E 009°44'  
2015-Feb-22 18:33N 38°34' E 008°44'1813.9
2015-Feb-22 17:17N 38°46' E 008°28'1413.7
2015-Feb-22 16:16N 38°57' E 008°17'1114.0
2015-Feb-22 15:28N 39°07' E 008°10'1514.5
2015-Feb-22 14:25N 39°20' E 008°00'  

Dump ship's entire track history